SBUG/URG METAR and TAF weather

Enter ICAO airport designator
Station Type Date Time Source
SBUG METAR 2019/08/18 22:00 UTC NOAA

SBUG 182200Z 17010KT CAVOK 14/06 Q1022


Station Type Date Time Source
SBUG Decoded METAR 2019/08/18 22:00 UTC NOAA

Station name not available
Aug 18, 2019 - 06:00 PM EDT / 2019.08.18 2200 UTC
Wind: from the S (170 degrees) at 12 MPH (10 KT):0
Visibility: greater than 7 mile(s):0
Temperature: 57 F (14 C)
Dew Point: 42 F (6 C)
Relative Humidity: 58%
Pressure (altimeter): 30.18 in. Hg (1022 hPa)
ob: SBUG 182200Z 17010KT CAVOK 14/06 Q1022
cycle: 22

Station Type Date Time Source
SBUG TAF 2019/08/18 18:21 UTC NOAA

TAF SBUG 181530Z 1818/1906 16015KT CAVOK TX16/1818Z TN09/1906Z
BECMG 1821/1823 16008KT
RMK PER

Example: see airport list